Time;durP1;ratioP1;P1;durP2;ratioP2;P2;SDS_P1;SDS_P2;PMS_P1;PMS_P2;Temp;Humidity;BMP_temperature;BMP_pressure;BME280_temperature;BME280_humidity;BME280_pressure;Samples;Min_cycle;Max_cycle;Signal;HPM_P1;HPM_P2
2022/02/08 00:01:51;;;;;;;6.30;2.70;;;;;2.00;96905.00;;;;111001;1249;41161;-58
2022/02/08 00:04:20;;;;;;;6.40;2.40;;;;;2.00;96909.40;;;;111079;1246;41143;-58
2022/02/08 00:06:49;;;;;;;7.40;2.90;;;;;2.00;96914.40;;;;111009;1246;41737;-60
2022/02/08 00:09:20;;;;;;;7.10;3.00;;;;;1.98;96916.80;;;;111126;1248;41130;-58
2022/02/08 00:11:50;;;;;;;8.80;2.90;;;;;1.90;96922.20;;;;111022;1247;42627;-58
2022/02/08 00:14:20;;;;;;;8.10;2.80;;;;;1.90;96927.80;;;;111045;1249;41135;-58
2022/02/08 00:16:49;;;;;;;6.20;2.70;;;;;1.90;96928.60;;;;111095;1246;41946;-58
2022/02/08 00:19:19;;;;;;;7.90;2.80;;;;;1.90;96934.40;;;;111054;1246;41169;-58
2022/02/08 00:21:48;;;;;;;7.00;2.50;;;;;1.90;96940.20;;;;111131;1247;41150;-58
2022/02/08 00:24:18;;;;;;;9.10;3.30;;;;;1.90;96940.00;;;;111060;1247;41570;-58
2022/02/08 00:26:47;;;;;;;7.40;3.20;;;;;1.90;96944.40;;;;111071;1247;41994;-57
2022/02/08 00:29:18;;;;;;;7.90;3.20;;;;;1.90;96958.20;;;;111019;1247;41149;-57
2022/02/08 00:31:48;;;;;;;7.30;3.00;;;;;1.90;96952.40;;;;111008;1247;41155;-58
2022/02/08 00:34:17;;;;;;;8.30;3.00;;;;;1.90;96948.80;;;;111041;1248;41142;-59
2022/02/08 00:36:46;;;;;;;7.70;3.10;;;;;1.90;96950.20;;;;110779;1248;42054;-56
2022/02/08 00:39:16;;;;;;;8.20;3.50;;;;;2.00;96952.80;;;;110882;1249;41609;-60
2022/02/08 00:41:45;;;;;;;8.30;3.30;;;;;2.00;96961.20;;;;110983;1248;41819;-60
2022/02/08 00:44:20;;;;;;;8.20;3.40;;;;;2.00;96963.80;;;;111114;1247;41200;-58
2022/02/08 00:47:11;;;;;;;9.90;3.20;;;;;2.00;96964.80;;;;111065;1247;41710;-59
2022/02/08 00:49:43;;;;;;;9.00;3.40;;;;;2.00;96969.20;;;;110931;1249;41167;-60
2022/02/08 00:52:16;;;;;;;8.10;3.70;;;;;2.00;96967.20;;;;111058;1247;42496;-58
2022/02/08 00:54:48;;;;;;;8.80;3.60;;;;;2.00;96972.80;;;;110971;1247;41279;-58
2022/02/08 00:57:18;;;;;;;7.20;2.90;;;;;2.00;96973.00;;;;111107;1247;41245;-59
2022/02/08 00:59:47;;;;;;;6.30;2.70;;;;;2.00;96978.40;;;;111019;1247;41187;-60
2022/02/08 01:02:18;;;;;;;6.30;2.50;;;;;2.00;96977.00;;;;111064;1247;41524;-59
2022/02/08 01:04:53;;;;;;;9.30;3.20;;;;;2.00;96977.40;;;;110890;1248;41163;-58
2022/02/08 01:07:23;;;;;;;7.30;2.80;;;;;1.98;96981.80;;;;111055;1247;41134;-57
2022/02/08 01:10:01;;;;;;;9.40;2.90;;;;;2.00;96985.80;;;;111037;1247;41325;-61
2022/02/08 01:12:33;;;;;;;5.50;2.30;;;;;2.00;96992.60;;;;111077;1247;41184;-60
2022/02/08 01:15:06;;;;;;;6.80;2.60;;;;;2.00;96994.40;;;;111010;1247;41151;-56
2022/02/08 01:17:36;;;;;;;7.70;3.00;;;;;1.92;96994.40;;;;111058;1247;41143;-59
2022/02/08 01:20:14;;;;;;;7.40;3.10;;;;;1.90;97003.20;;;;111102;1246;41603;-59
2022/02/08 01:22:44;;;;;;;7.00;2.70;;;;;1.90;96999.80;;;;111107;1246;41253;-59
2022/02/08 01:25:20;;;;;;;6.40;2.60;;;;;1.90;97004.60;;;;111062;1248;41166;-61
2022/02/08 01:27:53;;;;;;;7.60;2.80;;;;;1.90;97011.20;;;;111005;1248;42244;-60
2022/02/08 01:30:42;;;;;;;9.00;3.20;;;;;1.90;97014.20;;;;111047;1248;41145;-60
2022/02/08 01:44:12;;;;;;;6.30;2.60;;;;;1.90;97030.00;;;;110748;1248;41269;-59
2022/02/08 01:51:57;;;;;;;6.60;2.80;;;;;1.90;97037.20;;;;111093;1246;41139;-60
2022/02/08 01:54:27;;;;;;;8.00;2.80;;;;;1.92;97041.40;;;;111095;1247;41943;-60
2022/02/08 01:56:57;;;;;;;5.80;2.50;;;;;1.90;97040.60;;;;111141;1247;41136;-60
2022/02/08 01:59:27;;;;;;;7.40;2.90;;;;;1.96;97047.60;;;;110950;1248;41131;-59
2022/02/08 02:01:57;;;;;;;9.70;3.30;;;;;1.90;97041.60;;;;110875;1249;41269;-57
2022/02/08 02:04:28;;;;;;;6.80;2.80;;;;;1.92;97047.00;;;;111099;1247;41146;-61
2022/02/08 02:07:01;;;;;;;6.90;2.90;;;;;1.90;97049.00;;;;110754;1249;41144;-59
2022/02/08 02:09:30;;;;;;;7.00;2.90;;;;;1.92;97052.40;;;;110796;1248;41634;-58
2022/02/08 02:12:07;;;;;;;7.50;2.60;;;;;1.90;97057.00;;;;110934;1247;42492;-58
2022/02/08 02:14:38;;;;;;;9.50;2.90;;;;;1.94;97061.40;;;;110746;1250;41254;-58
2022/02/08 02:17:09;;;;;;;7.20;2.60;;;;;1.90;97063.60;;;;110939;1249;41147;-58
2022/02/08 02:19:40;;;;;;;6.40;2.30;;;;;1.90;97072.40;;;;110972;1249;41249;-59
2022/02/08 02:22:11;;;;;;;8.10;2.60;;;;;1.90;97074.20;;;;110683;1251;41607;-59
2022/02/08 02:24:41;;;;;;;;;;;;;1.90;97073.40;;;;110717;1248;41321;-58
2022/02/08 02:27:12;;;;;;;6.10;2.60;;;;;1.80;97078.00;;;;110884;1248;41155;-58
2022/02/08 02:29:42;;;;;;;6.70;2.80;;;;;1.80;97078.20;;;;110738;1249;41663;-59
2022/02/08 02:32:13;;;;;;;5.90;2.40;;;;;1.80;97080.80;;;;110825;1249;42471;-58
2022/02/08 02:34:49;;;;;;;5.40;2.10;;;;;1.80;97086.20;;;;110852;1248;41696;-58
2022/02/08 02:37:20;;;;;;;5.10;2.20;;;;;1.80;97097.00;;;;111016;1249;41373;-57
2022/02/08 02:39:50;;;;;;;7.50;2.60;;;;;1.70;97095.60;;;;111037;1247;41252;-59
2022/02/08 02:42:20;;;;;;;6.70;2.80;;;;;1.70;97098.20;;;;111029;1249;41609;-59
2022/02/08 02:44:51;;;;;;;6.90;2.70;;;;;1.70;97105.20;;;;111071;1249;41465;-58
2022/02/08 02:47:23;;;;;;;6.90;2.80;;;;;1.70;97106.80;;;;111037;1249;41339;-58
2022/02/08 02:49:53;;;;;;;6.20;2.50;;;;;1.60;97110.60;;;;111066;1246;41409;-58
2022/02/08 02:52:24;;;;;;;6.20;2.60;;;;;1.60;97117.00;;;;110893;1249;41200;-58
2022/02/08 02:54:58;;;;;;;9.00;2.70;;;;;1.50;97120.00;;;;111040;1248;42321;-58
2022/02/08 02:57:30;;;;;;;5.90;2.60;;;;;1.54;97121.60;;;;110834;1249;41258;-59
2022/02/08 03:00:08;;;;;;;7.90;2.70;;;;;1.60;97138.60;;;;111035;1247;41154;-58
2022/02/08 03:02:46;;;;;;;8.60;2.60;;;;;1.60;97140.40;;;;110960;1249;41243;-60
2022/02/08 03:05:34;;;;;;;9.50;2.80;;;;;1.56;97140.00;;;;111087;1249;41419;-60
2022/02/08 03:19:22;;;;;;;6.80;2.50;;;;;1.50;97161.20;;;;111087;1247;41127;-61
2022/02/08 03:21:53;;;;;;;8.30;2.80;;;;;1.42;97162.40;;;;111126;1247;41259;-61
2022/02/08 03:24:24;;;;;;;8.10;3.00;;;;;1.40;97156.00;;;;111015;1249;41303;-60
2022/02/08 03:26:55;;;;;;;9.40;2.80;;;;;1.40;97163.40;;;;111118;1246;41995;-61
2022/02/08 03:29:25;;;;;;;9.50;2.90;;;;;1.34;97168.00;;;;110716;1248;41139;-61
2022/02/08 03:31:56;;;;;;;9.50;3.10;;;;;1.30;97170.40;;;;110924;1247;41924;-61
2022/02/08 03:34:26;;;;;;;7.20;2.80;;;;;1.30;97161.20;;;;110629;1252;41641;-61
2022/02/08 03:36:57;;;;;;;7.40;2.70;;;;;1.20;97168.40;;;;111005;1248;41270;-61
2022/02/08 03:39:36;;;;;;;8.30;2.80;;;;;1.18;97176.80;;;;111095;1247;41212;-61
2022/02/08 03:42:24;;;;;;;7.40;2.70;;;;;1.10;97184.60;;;;110991;1249;41130;-59
2022/02/08 03:44:59;;;;;;;8.30;2.90;;;;;1.10;97187.40;;;;111020;1247;41261;-60
2022/02/08 03:47:30;;;;;;;7.20;2.90;;;;;1.06;97197.80;;;;111087;1247;41155;-61
2022/02/08 03:50:02;;;;;;;9.10;3.10;;;;;1.00;97203.60;;;;110988;1248;41270;-60
2022/02/08 03:52:33;;;;;;;10.50;3.10;;;;;0.90;97206.20;;;;110824;1246;41198;-59
2022/02/08 03:55:03;;;;;;;8.40;3.40;;;;;0.90;97216.40;;;;110814;1249;41376;-58
2022/02/08 03:57:34;;;;;;;7.70;3.00;;;;;0.80;97215.20;;;;110944;1248;41147;-58
2022/02/08 04:00:08;;;;;;;7.10;3.00;;;;;0.78;97227.60;;;;110862;1249;41273;-61
2022/02/08 04:02:51;;;;;;;6.60;2.80;;;;;0.80;97233.00;;;;111041;1248;42024;-60
2022/02/08 04:05:28;;;;;;;7.30;2.80;;;;;0.70;97243.80;;;;111038;1246;41143;-59
2022/02/08 04:08:02;;;;;;;7.40;2.90;;;;;0.70;97248.80;;;;111002;1246;41149;-59
2022/02/08 04:10:33;;;;;;;9.60;3.30;;;;;0.60;97250.80;;;;111028;1248;41259;-59
2022/02/08 04:15:47;;;;;;;7.30;2.80;;;;;0.50;97254.00;;;;111055;1247;42360;-59
2022/02/08 04:18:37;;;;;;;8.70;3.40;;;;;0.50;97269.20;;;;111002;1247;41143;-60
2022/02/08 04:43:02;;;;;;;7.70;3.30;;;;;0.10;97329.00;;;;111091;1247;42333;-62
2022/02/08 04:45:44;;;;;;;9.60;3.40;;;;;0.10;97340.00;;;;111069;1248;41612;-62
2022/02/08 04:48:28;;;;;;;10.20;3.70;;;;;0.00;97343.00;;;;110944;1248;41210;-60
2022/02/08 04:54:02;;;;;;;9.00;3.60;;;;;0.00;97353.20;;;;110947;1247;41880;-57
2022/02/08 05:45:48;;;;;;;10.00;4.20;;;;;0.02;97449.40;;;;110989;1247;41245;-60
2022/02/08 05:48:23;;;;;;;11.00;4.80;;;;;0.00;97449.60;;;;111016;1247;41137;-58
2022/02/08 05:51:08;;;;;;;12.00;5.40;;;;;0.00;97463.40;;;;110985;1249;41153;-58
2022/02/08 05:56:10;;;;;;;28.50;12.70;;;;;-0.10;97469.60;;;;111046;1246;41400;-59
2022/02/08 05:58:46;;;;;;;28.30;13.30;;;;;0.00;97473.40;;;;110809;1249;41614;-57
2022/02/08 06:01:15;;;;;;;19.40;8.40;;;;;0.00;97480.40;;;;111098;1246;41621;-59
2022/02/08 06:04:16;;;;;;;13.60;6.40;;;;;0.00;97482.60;;;;110977;1246;42012;-59
2022/02/08 06:06:45;;;;;;;16.70;6.30;;;;;0.00;97487.20;;;;111039;1246;41471;-58
2022/02/08 06:09:14;;;;;;;14.00;5.20;;;;;0.00;97491.20;;;;110920;1249;41144;-60
2022/02/08 06:11:49;;;;;;;12.60;5.40;;;;;0.00;97497.40;;;;111044;1247;41309;-58
2022/02/08 06:14:24;;;;;;;13.80;4.70;;;;;0.00;97499.40;;;;111050;1247;42490;-58
2022/02/08 06:16:54;;;;;;;10.80;4.20;;;;;0.06;97512.40;;;;110938;1248;41300;-58
2022/02/08 06:19:23;;;;;;;13.30;4.90;;;;;0.10;97516.80;;;;110900;1250;42471;-58
2022/02/08 06:21:52;;;;;;;11.10;4.70;;;;;0.16;97521.60;;;;111017;1247;41260;-57
2022/02/08 06:24:23;;;;;;;15.10;5.20;;;;;0.20;97528.20;;;;111099;1247;41601;-58
2022/02/08 06:26:53;;;;;;;14.50;4.70;;;;;0.20;97533.20;;;;110834;1249;41637;-61
2022/02/08 06:29:23;;;;;;;12.60;3.90;;;;;0.22;97534.20;;;;110985;1249;41264;-59
2022/02/08 06:31:53;;;;;;;10.50;4.20;;;;;0.28;97538.20;;;;111091;1246;41245;-58
2022/02/08 06:34:25;;;;;;;11.70;4.90;;;;;0.30;97542.80;;;;111056;1247;42237;-58
2022/02/08 06:37:01;;;;;;;13.40;5.00;;;;;0.30;97548.80;;;;110875;1249;41194;-59
2022/02/08 06:39:35;;;;;;;13.00;6.90;;;;;0.40;97551.20;;;;111058;1246;41115;-58
2022/02/08 06:42:04;;;;;;;15.00;6.80;;;;;0.50;97551.40;;;;111050;1249;41492;-58
2022/02/08 06:44:34;;;;;;;13.80;6.00;;;;;0.72;97546.00;;;;111033;1247;41644;-58
2022/02/08 06:47:04;;;;;;;12.30;5.50;;;;;0.90;97549.00;;;;111109;1246;41709;-58
2022/02/08 06:49:33;;;;;;;11.70;4.70;;;;;1.06;97554.60;;;;110938;1249;41156;-57
2022/02/08 06:52:03;;;;;;;13.00;6.70;;;;;1.16;97557.00;;;;110875;1247;41152;-58
2022/02/08 06:54:32;;;;;;;12.50;6.50;;;;;1.24;97560.20;;;;111064;1248;42093;-57
2022/02/08 06:57:01;;;;;;;11.70;4.90;;;;;1.32;97558.80;;;;110983;1248;41154;-58
2022/02/08 06:59:36;;;;;;;11.20;4.90;;;;;1.50;97568.80;;;;111013;1248;41252;-59
2022/02/08 07:02:06;;;;;;;10.30;4.40;;;;;1.60;97578.80;;;;110954;1249;41188;-58
2022/02/08 07:04:35;;;;;;;12.50;4.60;;;;;1.70;97582.60;;;;111078;1247;41252;-59
2022/02/08 07:07:04;;;;;;;9.90;4.60;;;;;1.84;97581.80;;;;111037;1246;41572;-58
2022/02/08 07:09:34;;;;;;;9.60;4.70;;;;;1.80;97587.80;;;;111033;1246;41715;-58
2022/02/08 07:12:04;;;;;;;10.80;4.30;;;;;1.90;97590.00;;;;111022;1249;41993;-58
2022/02/08 07:14:33;;;;;;;12.40;4.40;;;;;2.00;97595.20;;;;110867;1249;41520;-58
2022/02/08 07:17:03;;;;;;;10.20;4.30;;;;;2.00;97587.60;;;;111165;1248;42494;-57
2022/02/08 07:19:32;;;;;;;11.30;4.30;;;;;2.10;97588.00;;;;111078;1247;42144;-58
2022/02/08 07:22:02;;;;;;;20.80;11.40;;;;;2.10;97595.60;;;;111013;1247;41142;-59
2022/02/08 07:24:31;;;;;;;13.00;5.60;;;;;2.04;97590.20;;;;111067;1247;41271;-58
2022/02/08 07:27:00;;;;;;;14.30;6.40;;;;;2.20;97590.80;;;;111123;1248;41245;-60
2022/02/08 07:29:32;;;;;;;23.90;11.70;;;;;2.50;97593.60;;;;111039;1247;41133;-60
2022/02/08 07:32:03;;;;;;;22.60;10.40;;;;;2.88;97601.00;;;;111035;1247;41150;-60
2022/02/08 07:34:43;;;;;;;17.80;7.40;;;;;3.22;97602.20;;;;110811;1249;41444;-59
2022/02/08 07:37:19;;;;;;;15.60;7.10;;;;;3.54;97606.20;;;;111056;1247;42387;-60
2022/02/08 07:39:53;;;;;;;13.70;6.40;;;;;3.72;97600.60;;;;110836;1247;41254;-58
2022/02/08 07:42:22;;;;;;;13.60;6.00;;;;;3.90;97604.40;;;;110655;1249;41363;-59
2022/02/08 07:44:52;;;;;;;11.80;4.10;;;;;4.00;97608.20;;;;110959;1248;42416;-60
2022/02/08 07:47:25;;;;;;;13.50;6.80;;;;;4.10;97610.40;;;;110973;1249;41156;-58
2022/02/08 07:49:54;;;;;;;11.20;4.10;;;;;4.30;97613.60;;;;111009;1248;42199;-58
2022/02/08 07:52:23;;;;;;;10.50;4.30;;;;;4.50;97619.40;;;;111060;1246;41274;-58
2022/02/08 07:54:52;;;;;;;9.60;3.50;;;;;4.66;97628.20;;;;110817;1250;41119;-58
2022/02/08 07:57:21;;;;;;;11.40;4.50;;;;;4.90;97628.20;;;;111062;1248;41321;-61
2022/02/08 07:59:50;;;;;;;10.00;4.10;;;;;4.84;97632.40;;;;111076;1248;41188;-58
2022/02/08 08:02:19;;;;;;;10.90;4.30;;;;;4.60;97639.40;;;;111050;1248;41261;-57
2022/02/08 08:04:49;;;;;;;11.70;4.20;;;;;4.54;97635.40;;;;111116;1247;41133;-57
2022/02/08 08:07:18;;;;;;;9.30;3.90;;;;;4.70;97639.40;;;;110871;1249;42367;-58
2022/02/08 08:09:47;;;;;;;13.50;6.60;;;;;4.50;97644.40;;;;110990;1250;41148;-58
2022/02/08 08:12:16;;;;;;;12.40;4.90;;;;;4.70;97643.60;;;;111126;1247;42210;-58
2022/02/08 08:14:47;;;;;;;14.30;5.70;;;;;4.66;97646.40;;;;111102;1248;42837;-58
2022/02/08 08:19:57;;;;;;;8.60;3.40;;;;;5.30;97645.40;;;;111076;1247;41250;-58
2022/02/08 08:22:27;;;;;;;10.40;3.50;;;;;5.54;97646.40;;;;111088;1248;41274;-60
2022/02/08 08:24:57;;;;;;;10.50;4.20;;;;;5.70;97653.60;;;;111132;1246;41151;-60
2022/02/08 08:27:26;;;;;;;11.40;4.40;;;;;6.28;97650.00;;;;111130;1247;40931;-59
2022/02/08 08:29:55;;;;;;;9.80;3.70;;;;;6.60;97654.40;;;;111158;1247;41146;-58
2022/02/08 08:32:24;;;;;;;9.50;3.50;;;;;6.34;97659.60;;;;111073;1247;42370;-58
2022/02/08 08:34:54;;;;;;;10.00;3.60;;;;;6.72;97649.60;;;;110868;1248;41151;-60
2022/02/08 08:37:24;;;;;;;10.30;3.50;;;;;7.58;97646.20;;;;111081;1247;42056;-58
2022/02/08 08:39:56;;;;;;;10.00;3.60;;;;;8.86;97646.00;;;;111073;1250;41906;-58
2022/02/08 08:53:23;;;;;;;8.50;2.80;;;;;15.20;97621.20;;;;111011;1248;41577;-57
2022/02/08 08:55:52;;;;;;;7.70;3.00;;;;;16.42;97623.20;;;;111051;1247;41146;-57
2022/02/08 08:58:21;;;;;;;9.10;3.10;;;;;16.76;97623.80;;;;111036;1248;41425;-57
2022/02/08 09:00:50;;;;;;;8.20;3.20;;;;;16.14;97633.60;;;;111030;1247;41575;-57
2022/02/08 09:03:20;;;;;;;9.80;3.00;;;;;15.46;97636.80;;;;110672;1248;410964;-58
2022/02/08 09:05:49;;;;;;;6.90;2.70;;;;;15.54;97625.40;;;;110979;1246;42140;-58
2022/02/08 09:08:18;;;;;;;6.10;2.40;;;;;16.76;97627.40;;;;111059;1247;41166;-57
2022/02/08 09:10:56;;;;;;;7.40;2.60;;;;;17.68;97627.80;;;;111027;1246;41285;-58
2022/02/08 09:16:39;;;;;;;7.10;2.40;;;;;18.36;97651.60;;;;110873;1248;41146;-58
2022/02/08 09:30:06;;;;;;;6.10;2.10;;;;;17.84;97633.60;;;;111117;1247;41722;-56
2022/02/08 09:35:11;;;;;;;8.00;2.60;;;;;20.04;97655.40;;;;111047;1246;41134;-55
2022/02/08 09:37:41;;;;;;;6.70;2.50;;;;;20.50;97633.60;;;;110932;1249;41155;-58
2022/02/08 09:40:12;;;;;;;8.00;2.50;;;;;21.88;97633.20;;;;111012;1247;42405;-58
2022/02/08 09:42:42;;;;;;;6.70;2.20;;;;;22.04;97641.20;;;;111144;1246;41174;-57
2022/02/08 09:45:17;;;;;;;6.20;2.10;;;;;22.22;97633.80;;;;111017;1247;41261;-57
2022/02/08 09:50:29;;;;;;;7.50;2.10;;;;;23.36;97653.80;;;;111049;1246;41621;-58
2022/02/08 09:53:01;;;;;;;5.80;1.80;;;;;21.48;97658.80;;;;111055;1247;41441;-58
2022/02/08 09:55:40;;;;;;;5.20;1.80;;;;;21.90;97640.60;;;;111087;1247;41599;-58
2022/02/08 09:58:10;;;;;;;5.90;1.90;;;;;22.52;97667.00;;;;111061;1248;41658;-56
2022/02/08 10:00:40;;;;;;;6.00;2.20;;;;;20.04;97654.20;;;;111136;1247;41159;-58
2022/02/08 10:03:18;;;;;;;7.70;2.40;;;;;16.76;97685.20;;;;111086;1247;41376;-58
2022/02/08 10:05:53;;;;;;;8.20;2.40;;;;;15.54;97684.20;;;;111057;1248;41401;-60
2022/02/08 10:08:22;;;;;;;5.70;2.30;;;;;13.62;97696.40;;;;111107;1246;42084;-58
2022/02/08 10:10:52;;;;;;;8.80;2.30;;;;;13.92;97700.40;;;;111088;1246;41267;-58
2022/02/08 10:13:43;;;;;;;8.70;2.80;;;;;13.50;97689.20;;;;111090;1249;41156;-57
2022/02/08 10:24:08;;;;;;;6.40;2.20;;;;;15.28;97704.20;;;;110845;1246;41274;-59
2022/02/08 10:26:44;;;;;;;8.20;2.40;;;;;14.10;97713.40;;;;111040;1249;42284;-58
2022/02/08 10:29:45;;;;;;;8.90;2.20;;;;;13.24;97720.00;;;;111085;1248;41266;-58
2022/02/08 10:38:04;;;;;;;6.20;2.30;;;;;11.18;97733.00;;;;111078;1248;41714;-59
2022/02/08 10:40:38;;;;;;;9.30;2.50;;;;;11.04;97734.60;;;;111039;1246;41210;-58
2022/02/08 10:43:09;;;;;;;6.90;2.30;;;;;11.18;97732.80;;;;111088;1246;41274;-58
2022/02/08 10:45:40;;;;;;;9.00;2.70;;;;;11.96;97729.20;;;;111042;1246;41774;-59
2022/02/08 10:48:22;;;;;;;8.80;2.80;;;;;11.54;97740.60;;;;111068;1247;41161;-58
2022/02/08 10:50:55;;;;;;;11.20;2.80;;;;;12.38;97734.60;;;;111026;1247;41267;-57
2022/02/08 10:53:25;;;;;;;7.00;2.50;;;;;11.42;97742.00;;;;111047;1246;41161;-57
2022/02/08 10:58:39;;;;;;;7.70;2.10;;;;;10.08;97745.80;;;;111024;1248;41143;-58
2022/02/08 11:01:23;;;;;;;9.50;2.90;;;;;9.38;97753.00;;;;111079;1249;41270;-59
2022/02/08 11:04:06;;;;;;;8.40;2.30;;;;;8.96;97754.00;;;;110964;1249;41694;-59
2022/02/08 11:06:46;;;;;;;11.20;2.90;;;;;8.26;97759.60;;;;111042;1247;41435;-58
2022/02/08 11:14:45;;;;;;;7.60;2.30;;;;;6.84;97769.60;;;;111018;1249;41709;-59
2022/02/08 11:17:57;;;;;;;9.60;2.90;;;;;6.58;97766.00;;;;111056;1249;41288;-58
2022/02/08 11:20:31;;;;;;;8.20;2.50;;;;;7.44;97760.80;;;;111005;1249;41648;-58
2022/02/08 11:23:13;;;;;;;6.90;2.50;;;;;8.20;97760.20;;;;110795;1249;41648;-59
2022/02/08 11:25:45;;;;;;;9.60;2.90;;;;;8.38;97752.20;;;;111029;1248;41358;-59
2022/02/08 11:28:35;;;;;;;10.20;2.80;;;;;7.60;97759.40;;;;110821;1249;41720;-59
2022/02/08 11:31:17;;;;;;;10.40;3.10;;;;;7.22;97761.00;;;;111006;1249;41205;-58
2022/02/08 11:38:57;;;;;;;10.30;4.00;;;;;7.00;97768.20;;;;111087;1249;41148;-58
2022/02/08 11:53:22;;;;;;;15.50;6.90;;;;;9.20;97782.20;;;;111085;1248;42369;-58
2022/02/08 12:01:45;;;;;;;11.70;4.00;;;;;7.92;97790.80;;;;111048;1247;41156;-62
2022/02/08 12:04:34;;;;;;;12.00;4.10;;;;;9.02;97759.20;;;;111124;1248;41838;-58
2022/02/08 12:07:14;;;;;;;9.70;3.50;;;;;12.06;97760.00;;;;111102;1247;41162;-59
2022/02/08 12:10:00;;;;;;;7.60;2.70;;;;;13.00;97737.80;;;;111099;1249;41265;-58
2022/02/08 12:35:18;;;;;;;9.20;2.80;;;;;18.00;97723.00;;;;111112;1248;41298;-58
2022/02/08 12:53:00;;;;;;;8.00;2.00;;;;;24.48;97714.80;;;;111055;1247;41251;-60
2022/02/08 12:55:28;;;;;;;6.10;2.10;;;;;25.40;97711.60;;;;111058;1247;41447;-60
2022/02/08 12:58:13;;;;;;;8.00;2.50;;;;;24.64;97719.40;;;;111060;1249;41147;-58
2022/02/08 13:03:49;;;;;;;7.10;2.20;;;;;24.32;97731.40;;;;111056;1248;41149;-58
2022/02/08 13:14:59;;;;;;;;;;;;;23.00;97763.40;;;;111095;1248;41151;-59
2022/02/08 14:08:13;;;;;;;10.00;3.60;;;;;7.80;97857.60;;;;110991;1247;41146;-59
2022/02/08 14:14:08;;;;;;;33.80;13.70;;;;;7.10;97870.20;;;;111002;1248;42001;-59
2022/02/08 14:16:48;;;;;;;41.70;17.00;;;;;7.20;97865.20;;;;110974;1250;41292;-59
2022/02/08 14:30:16;;;;;;;23.50;9.50;;;;;6.62;97878.60;;;;111019;1249;41946;-57
2022/02/08 14:49:56;;;;;;;18.30;8.70;;;;;5.40;97911.60;;;;111112;1248;41725;-61
2022/02/08 15:00:23;;;;;;;11.30;4.00;;;;;5.10;97916.20;;;;111104;1249;41582;-60
2022/02/08 15:05:48;;;;;;;14.60;6.20;;;;;5.00;97921.80;;;;111033;1248;42207;-59
2022/02/08 15:08:25;;;;;;;11.00;4.50;;;;;4.90;97931.20;;;;111063;1248;41226;-58
2022/02/08 15:11:01;;;;;;;12.50;4.50;;;;;4.70;97933.60;;;;110910;1249;41216;-58
2022/02/08 15:13:31;;;;;;;11.50;3.80;;;;;4.70;97930.20;;;;110885;1249;41980;-58
2022/02/08 15:18:37;;;;;;;11.90;3.80;;;;;4.70;97930.20;;;;111080;1249;42394;-58
2022/02/08 15:21:12;;;;;;;11.50;4.00;;;;;4.70;97929.60;;;;111086;1248;41894;-58
2022/02/08 15:23:41;;;;;;;10.60;4.00;;;;;4.70;97926.40;;;;111056;1248;41629;-59
2022/02/08 15:26:10;;;;;;;9.70;3.80;;;;;4.70;97932.60;;;;111078;1249;41607;-58
2022/02/08 15:28:40;;;;;;;10.90;3.90;;;;;4.70;97935.60;;;;111038;1249;41140;-58
2022/02/08 15:31:09;;;;;;;11.80;3.80;;;;;4.70;97938.40;;;;111059;1248;41178;-57
2022/02/08 15:33:39;;;;;;;12.20;4.40;;;;;4.60;97935.20;;;;111008;1247;41398;-58
2022/02/08 15:36:08;;;;;;;12.60;4.60;;;;;4.60;97935.00;;;;111039;1248;41363;-59
2022/02/08 15:38:40;;;;;;;13.20;5.20;;;;;4.50;97940.40;;;;111094;1248;41939;-58
2022/02/08 15:41:09;;;;;;;15.60;5.40;;;;;4.44;97938.80;;;;111052;1249;41555;-59
2022/02/08 15:43:38;;;;;;;13.20;5.00;;;;;4.48;97947.20;;;;111041;1248;41163;-60
2022/02/08 15:46:27;;;;;;;12.50;4.70;;;;;4.44;97951.40;;;;111105;1247;41145;-58
2022/02/08 15:48:56;;;;;;;12.30;4.40;;;;;4.50;97952.20;;;;110986;1249;41541;-57
2022/02/08 15:51:30;;;;;;;11.50;4.10;;;;;4.50;97956.00;;;;111070;1249;41150;-58
2022/02/08 15:54:09;;;;;;;14.10;4.30;;;;;4.50;97956.60;;;;111036;1248;41158;-58
2022/02/08 16:10:05;;;;;;;10.80;4.40;;;;;3.80;97979.40;;;;111070;1248;41828;-61
2022/02/08 16:20:31;;;;;;;;;;;;;3.56;97991.40;;;;110995;1248;42405;-60
2022/02/08 16:26:09;;;;;;;19.10;6.40;;;;;3.40;97991.00;;;;111099;1248;42392;-60
2022/02/08 16:58:38;;;;;;;13.50;5.30;;;;;2.90;98019.20;;;;111077;1249;41135;-57
2022/02/08 17:01:12;;;;;;;15.40;6.00;;;;;2.98;98008.60;;;;111037;1249;41261;-58
2022/02/08 17:03:45;;;;;;;17.00;6.00;;;;;2.84;98022.40;;;;110858;1250;41258;-58
2022/02/08 17:06:17;;;;;;;13.60;5.10;;;;;2.88;98030.40;;;;111039;1249;41198;-58
2022/02/08 17:08:50;;;;;;;12.70;5.40;;;;;2.80;98035.00;;;;111038;1246;41151;-60
2022/02/08 17:15:07;;;;;;;12.70;4.60;;;;;2.80;98032.00;;;;110788;1249;41942;-58
2022/02/08 17:47:42;;;;;;;14.40;4.20;;;;;2.40;98049.60;;;;110974;1248;41314;-58
2022/02/08 17:50:14;;;;;;;16.30;4.60;;;;;2.30;98046.60;;;;110971;1250;42465;-59
2022/02/08 17:52:44;;;;;;;12.10;4.20;;;;;2.30;98056.40;;;;111036;1248;41136;-59
2022/02/08 17:55:15;;;;;;;12.80;4.60;;;;;2.20;98052.40;;;;110768;1250;41137;-58
2022/02/08 17:57:44;;;;;;;10.20;4.00;;;;;2.14;98045.40;;;;110790;1251;41299;-58
2022/02/08 18:00:15;;;;;;;13.50;4.50;;;;;2.10;98047.40;;;;110872;1250;41278;-58
2022/02/08 18:02:45;;;;;;;12.10;4.50;;;;;2.00;98052.60;;;;110889;1247;41613;-57
2022/02/08 18:05:16;;;;;;;15.10;4.50;;;;;1.98;98048.20;;;;110943;1250;41068;-58
2022/02/08 18:07:45;;;;;;;13.20;4.60;;;;;1.96;98051.60;;;;110833;1250;42123;-57
2022/02/08 18:10:21;;;;;;;13.80;5.40;;;;;1.90;98048.60;;;;111005;1250;42061;-58
2022/02/08 18:12:54;;;;;;;17.50;5.70;;;;;1.80;98054.80;;;;110913;1249;41366;-60
2022/02/08 18:15:25;;;;;;;12.80;4.80;;;;;1.80;98059.00;;;;110889;1249;41143;-59
2022/02/08 18:18:01;;;;;;;12.70;5.10;;;;;1.80;98055.40;;;;110693;1250;41167;-59
2022/02/08 18:20:39;;;;;;;13.70;4.90;;;;;1.70;98052.20;;;;110678;1250;41131;-58
2022/02/08 19:07:16;;;;;;;17.00;6.50;;;;;1.20;98067.40;;;;110981;1250;41152;-61
2022/02/08 19:12:25;;;;;;;16.50;6.40;;;;;1.20;98056.40;;;;110919;1247;41640;-59
2022/02/08 19:18:14;;;;;;;15.30;6.60;;;;;1.04;98069.00;;;;111029;1247;41160;-58
2022/02/08 19:20:52;;;;;;;29.20;9.10;;;;;0.94;98063.60;;;;111015;1248;41668;-57
2022/02/08 19:23:21;;;;;;;20.80;8.20;;;;;0.96;98060.60;;;;111022;1247;41166;-59
2022/02/08 19:25:50;;;;;;;19.40;7.00;;;;;0.90;98065.80;;;;110672;1251;41426;-57
2022/02/08 19:28:19;;;;;;;16.00;6.80;;;;;0.80;98070.80;;;;111011;1247;41282;-59
2022/02/08 19:30:50;;;;;;;17.90;6.70;;;;;0.80;98074.80;;;;110715;1249;41604;-57
2022/02/08 19:33:21;;;;;;;17.60;5.90;;;;;0.86;98061.80;;;;110974;1247;41599;-60
2022/02/08 19:35:51;;;;;;;15.10;5.80;;;;;0.90;98068.40;;;;110901;1248;41191;-57
2022/02/08 19:38:25;;;;;;;;;;;;;0.90;98069.00;;;;111045;1247;41264;-59
2022/02/08 19:40:54;;;;;;;12.60;5.20;;;;;0.90;98068.00;;;;111085;1248;41489;-58
2022/02/08 19:43:24;;;;;;;18.50;5.70;;;;;0.92;98062.80;;;;111004;1248;42355;-59
2022/02/08 19:45:53;;;;;;;15.70;5.10;;;;;0.94;98054.00;;;;111115;1248;41155;-58
2022/02/08 19:48:22;;;;;;;13.70;5.10;;;;;1.00;98065.20;;;;110982;1248;41482;-57
2022/02/08 19:50:51;;;;;;;15.40;5.70;;;;;1.00;98069.40;;;;110977;1248;41814;-57
2022/02/08 19:53:20;;;;;;;18.60;6.20;;;;;1.10;98070.20;;;;111029;1247;41586;-59
2022/02/08 19:58:27;;;;;;;16.40;5.90;;;;;1.20;98067.80;;;;111037;1249;41364;-59
2022/02/08 20:00:59;;;;;;;13.60;5.60;;;;;1.20;98067.00;;;;110664;1250;41166;-59
2022/02/08 20:03:35;;;;;;;14.10;5.40;;;;;1.24;98063.40;;;;110701;1250;41163;-58
2022/02/08 20:06:04;;;;;;;15.00;5.90;;;;;1.30;98065.00;;;;111041;1248;41224;-58
2022/02/08 20:08:34;;;;;;;14.40;5.80;;;;;1.30;98071.20;;;;111050;1248;41596;-58
2022/02/08 20:11:03;;;;;;;16.00;5.50;;;;;1.30;98080.80;;;;111078;1247;41862;-58
2022/02/08 20:13:32;;;;;;;13.50;4.80;;;;;1.32;98075.20;;;;110939;1248;41151;-58
2022/02/08 20:16:02;;;;;;;12.60;4.90;;;;;1.40;98070.80;;;;111059;1248;41862;-58
2022/02/08 20:18:31;;;;;;;14.40;5.10;;;;;1.40;98069.60;;;;110818;1249;41357;-62
2022/02/08 20:21:02;;;;;;;13.20;4.60;;;;;1.44;98073.00;;;;111084;1248;41265;-60
2022/02/08 20:23:31;;;;;;;12.30;4.60;;;;;1.50;98075.80;;;;110834;1250;41157;-58
2022/02/08 20:26:01;;;;;;;20.80;5.30;;;;;1.50;98075.20;;;;111003;1248;41725;-57
2022/02/08 20:28:37;;;;;;;11.70;5.00;;;;;1.50;98071.60;;;;110989;1248;41832;-57
2022/02/08 20:31:07;;;;;;;13.30;4.60;;;;;1.50;98074.80;;;;111023;1247;41685;-57